Time;durP1;ratioP1;P1;durP2;ratioP2;P2;SDS_P1;SDS_P2;PMS_P1;PMS_P2;Temp;Humidity;BMP_temperature;BMP_pressure;BME280_temperature;BME280_humidity;BME280_pressure;Samples;Min_cycle;Max_cycle;Signal;HPM_P1;HPM_P2
2022/10/24 00:02:16;;;;;;;1999.90;999.90;;;18.20;99.90;;;;;;5069555;28;20455;-65
2022/10/24 00:04:44;;;;;;;1999.90;999.90;;;18.20;99.90;;;;;;5069972;28;20439;-65
2022/10/24 00:07:11;;;;;;;1999.90;999.90;;;18.00;99.90;;;;;;5070065;28;20471;-65
2022/10/24 00:09:38;;;;;;;1999.90;999.90;;;18.00;99.90;;;;;;5070266;28;20443;-65
2022/10/24 00:12:06;;;;;;;1999.90;999.90;;;17.90;99.90;;;;;;5069459;28;20813;-65
2022/10/24 00:14:35;;;;;;;1999.90;999.90;;;17.90;99.90;;;;;;5069644;28;20920;-64
2022/10/24 00:17:02;;;;;;;1999.90;999.90;;;17.90;99.90;;;;;;5069950;28;20458;-65
2022/10/24 00:19:29;;;;;;;1999.90;999.90;;;17.80;99.90;;;;;;5069883;28;20796;-64
2022/10/24 00:21:57;;;;;;;1999.90;999.90;;;17.70;99.90;;;;;;5069270;28;20457;-65
2022/10/24 00:24:24;;;;;;;1999.90;999.90;;;17.60;99.90;;;;;;5069620;28;20444;-65
2022/10/24 00:26:50;;;;;;;1999.90;999.90;;;17.60;99.90;;;;;;5070019;28;20439;-65
2022/10/24 00:29:17;;;;;;;1999.90;999.90;;;17.40;99.90;;;;;;5069869;28;20454;-64
2022/10/24 00:31:44;;;;;;;1999.90;999.90;;;17.30;99.90;;;;;;5069205;28;20478;-65
2022/10/24 00:34:11;;;;;;;1999.90;999.90;;;17.30;99.90;;;;;;5069658;28;20485;-65
2022/10/24 00:36:38;;;;;;;1999.90;999.90;;;17.10;99.90;;;;;;5069591;28;20451;-64
2022/10/24 00:39:06;;;;;;;1999.90;999.90;;;17.00;99.90;;;;;;5069670;28;20463;-65
2022/10/24 00:41:35;;;;;;;1999.90;999.90;;;16.90;99.90;;;;;;5069367;28;20447;-65
2022/10/24 00:44:18;;;;;;;1999.90;999.90;;;16.80;99.90;;;;;;5069708;28;20458;-64
2022/10/24 00:46:48;;;;;;;1999.90;999.90;;;16.70;99.90;;;;;;5069715;28;20944;-65
2022/10/24 00:49:17;;;;;;;1999.90;999.90;;;16.80;99.90;;;;;;5069133;28;20455;-65
2022/10/24 00:51:46;;;;;;;1999.90;999.90;;;16.90;99.90;;;;;;5069039;28;20447;-65
2022/10/24 00:54:15;;;;;;;1999.90;999.90;;;16.80;99.90;;;;;;5069525;28;20482;-64
2022/10/24 00:56:45;;;;;;;1999.90;999.90;;;16.80;99.90;;;;;;5069591;28;20439;-65
2022/10/24 00:59:14;;;;;;;1999.90;999.90;;;16.70;99.90;;;;;;5069527;28;20471;-65
2022/10/24 01:01:43;;;;;;;1999.90;999.90;;;16.60;99.90;;;;;;5068697;28;20455;-64
2022/10/24 01:04:12;;;;;;;1999.90;999.90;;;16.40;99.90;;;;;;5069741;28;20810;-65
2022/10/24 01:06:47;;;;;;;1999.90;999.90;;;16.30;99.90;;;;;;5069301;28;20443;-65
2022/10/24 01:09:31;;;;;;;1999.90;999.90;;;16.20;99.90;;;;;;5069659;28;20466;-64
2022/10/24 01:12:10;;;;;;;1999.90;999.90;;;16.20;99.90;;;;;;5068582;28;20451;-65
2022/10/24 01:14:47;;;;;;;1999.90;999.90;;;16.10;99.90;;;;;;5069296;28;20497;-64
2022/10/24 01:17:20;;;;;;;1999.90;999.90;;;16.00;99.90;;;;;;5069330;28;20463;-65
2022/10/24 01:20:12;;;;;;;1999.90;999.90;;;15.80;99.90;;;;;;5069501;28;20449;-65
2022/10/24 01:22:47;;;;;;;1999.90;999.90;;;15.80;99.90;;;;;;5068454;28;20447;-65
2022/10/24 01:25:25;;;;;;;1999.90;999.90;;;15.80;99.90;;;;;;5069058;28;20454;-65
2022/10/24 01:28:01;;;;;;;1999.90;999.90;;;15.80;99.90;;;;;;5069054;28;20470;-65
2022/10/24 01:30:35;;;;;;;1999.90;999.90;;;15.70;99.90;;;;;;5069415;28;20442;-65
2022/10/24 01:33:06;;;;;;;1999.90;999.90;;;15.70;99.90;;;;;;5068708;28;20443;-65
2022/10/24 01:35:39;;;;;;;1999.90;999.90;;;15.80;99.90;;;;;;5068861;28;21008;-64
2022/10/24 01:38:14;;;;;;;1999.90;999.90;;;15.90;99.90;;;;;;5067975;28;20546;-65
2022/10/24 01:40:49;;;;;;;1999.90;999.90;;;16.00;99.90;;;;;;5069060;28;20451;-64
2022/10/24 01:43:20;;;;;;;1999.90;999.90;;;16.00;99.90;;;;;;5068749;28;21144;-65
2022/10/24 01:45:53;;;;;;;1999.90;999.90;;;16.00;99.90;;;;;;5069066;28;20955;-64
2022/10/24 01:48:22;;;;;;;1999.90;999.90;;;16.10;99.90;;;;;;5069423;28;20478;-65
2022/10/24 01:50:53;;;;;;;1999.90;999.90;;;16.00;99.90;;;;;;5069162;28;20443;-64
2022/10/24 01:53:22;;;;;;;1999.90;999.90;;;16.00;99.90;;;;;;5069223;28;20447;-65
2022/10/24 01:55:49;;;;;;;1999.90;999.90;;;16.10;99.90;;;;;;5068837;28;20510;-64
2022/10/24 01:58:16;;;;;;;1999.90;999.90;;;16.10;99.90;;;;;;5069204;28;20545;-65
2022/10/24 02:00:45;;;;;;;1999.90;999.90;;;16.10;99.90;;;;;;5069402;28;20764;-64
2022/10/24 02:03:23;;;;;;;1999.90;999.90;;;16.10;99.90;;;;;;5072505;28;20810;-64
2022/10/24 02:05:53;;;;;;;1999.90;999.90;;;16.20;99.90;;;;;;5072293;28;20601;-64
2022/10/24 02:08:25;;;;;;;1999.90;999.90;;;16.30;99.90;;;;;;5072598;28;20825;-64
2022/10/24 02:10:55;;;;;;;1999.90;999.90;;;16.40;99.90;;;;;;5071875;28;20454;-65
2022/10/24 02:13:28;;;;;;;1999.90;999.90;;;16.50;99.90;;;;;;5072207;28;20447;-64
2022/10/24 02:15:58;;;;;;;1999.90;999.90;;;16.50;99.90;;;;;;5071858;28;20479;-64
2022/10/24 02:18:27;;;;;;;1999.90;999.90;;;16.60;99.90;;;;;;5072343;28;20879;-65
2022/10/24 02:20:59;;;;;;;1999.90;999.90;;;16.60;99.90;;;;;;5071615;28;20793;-65
2022/10/24 02:23:33;;;;;;;1999.90;999.90;;;16.60;99.90;;;;;;5071868;28;21126;-64
2022/10/24 02:26:02;;;;;;;1999.90;999.90;;;16.70;99.90;;;;;;5071832;28;20435;-64
2022/10/24 02:28:34;;;;;;;1999.90;999.90;;;16.80;99.90;;;;;;5072132;28;20463;-65
2022/10/24 02:31:06;;;;;;;1999.90;999.90;;;16.80;99.90;;;;;;5071953;28;20822;-65
2022/10/24 02:33:35;;;;;;;1999.90;999.90;;;16.80;99.90;;;;;;5071390;28;20442;-65
2022/10/24 02:36:04;;;;;;;1999.90;999.90;;;16.80;99.90;;;;;;5071813;28;20494;-64
2022/10/24 02:38:34;;;;;;;1999.90;999.90;;;16.80;99.90;;;;;;5071827;28;20467;-65
2022/10/24 02:41:08;;;;;;;1999.90;999.90;;;16.80;99.90;;;;;;5071713;28;20454;-65
2022/10/24 02:43:35;;;;;;;1999.90;999.90;;;16.80;99.90;;;;;;5070172;28;20439;-65
2022/10/24 02:46:03;;;;;;;1999.90;999.90;;;16.80;99.90;;;;;;5071328;28;20959;-65
2022/10/24 02:48:36;;;;;;;1999.90;999.90;;;16.70;99.90;;;;;;5071769;28;20463;-65
2022/10/24 02:51:04;;;;;;;1999.90;999.90;;;16.80;99.90;;;;;;5071437;28;20443;-64
2022/10/24 02:53:31;;;;;;;1999.90;999.90;;;16.80;99.90;;;;;;5071198;28;20470;-65
2022/10/24 02:55:57;;;;;;;1999.90;999.90;;;16.80;99.90;;;;;;5071184;28;20845;-64
2022/10/24 02:58:24;;;;;;;1999.90;999.90;;;16.80;99.90;;;;;;5071242;28;20545;-65
2022/10/24 03:00:51;;;;;;;1999.90;999.90;;;16.80;99.90;;;;;;5071318;28;20451;-64
2022/10/24 03:03:18;;;;;;;1999.90;999.90;;;16.80;99.90;;;;;;5071134;28;20446;-65
2022/10/24 03:05:46;;;;;;;1999.90;999.90;;;16.80;99.90;;;;;;5070888;28;20435;-65
2022/10/24 03:08:12;;;;;;;1999.90;999.90;;;16.80;99.90;;;;;;5071291;28;20471;-65
2022/10/24 03:10:39;;;;;;;1999.90;999.90;;;16.80;99.90;;;;;;5070814;28;20450;-65
2022/10/24 03:13:06;;;;;;;1999.90;999.90;;;16.80;99.90;;;;;;5070479;28;20443;-65
2022/10/24 03:15:33;;;;;;;1999.90;999.90;;;16.80;99.90;;;;;;5070668;28;20478;-64
2022/10/24 03:18:00;;;;;;;1999.90;999.90;;;16.90;99.90;;;;;;5071307;28;20463;-65
2022/10/24 03:20:27;;;;;;;1999.90;999.90;;;16.90;99.90;;;;;;5071097;28;20447;-64
2022/10/24 03:22:55;;;;;;;1999.90;999.90;;;17.10;99.90;;;;;;5070405;28;20442;-65
2022/10/24 03:25:22;;;;;;;1999.90;999.90;;;17.10;99.90;;;;;;5070459;28;20455;-65
2022/10/24 03:27:48;;;;;;;1999.90;999.90;;;17.10;99.90;;;;;;5071162;28;20812;-65
2022/10/24 03:30:15;;;;;;;1999.90;999.90;;;17.10;99.90;;;;;;5070923;28;20451;-65
2022/10/24 03:32:42;;;;;;;1999.90;999.90;;;17.10;99.90;;;;;;5070286;28;20447;-65
2022/10/24 03:35:09;;;;;;;1999.90;999.90;;;17.10;99.90;;;;;;5070653;28;20482;-65
2022/10/24 03:37:36;;;;;;;1999.90;999.90;;;17.00;99.90;;;;;;5070574;28;20471;-65
2022/10/24 03:40:05;;;;;;;1999.90;999.90;;;17.00;99.90;;;;;;5070802;28;20945;-65
2022/10/24 03:42:31;;;;;;;1999.90;999.90;;;16.90;99.90;;;;;;5070064;28;20444;-65
2022/10/24 03:44:58;;;;;;;1999.90;999.90;;;16.90;99.90;;;;;;5070445;28;20447;-64
2022/10/24 03:47:25;;;;;;;1999.90;999.90;;;16.90;99.90;;;;;;5070340;28;20987;-65
2022/10/24 03:49:51;;;;;;;1999.90;999.90;;;16.80;99.90;;;;;;5070632;28;21057;-64
2022/10/24 03:52:18;;;;;;;1999.90;999.90;;;16.80;99.90;;;;;;5069557;28;20447;-65
2022/10/24 03:54:45;;;;;;;1999.90;999.90;;;16.80;99.90;;;;;;5070105;28;20462;-65
2022/10/24 03:57:13;;;;;;;1999.90;999.90;;;16.70;99.90;;;;;;5070387;28;20470;-65
2022/10/24 03:59:40;;;;;;;1999.90;999.90;;;16.70;99.90;;;;;;5070713;28;20443;-64
2022/10/24 04:02:07;;;;;;;1999.90;999.90;;;16.70;99.90;;;;;;5070076;28;20458;-65
2022/10/24 04:04:34;;;;;;;1999.90;999.90;;;16.70;99.90;;;;;;5069966;28;20446;-65
2022/10/24 04:07:00;;;;;;;1999.90;999.90;;;16.60;99.90;;;;;;5070182;28;20942;-65
2022/10/24 04:09:27;;;;;;;1999.90;999.90;;;16.60;99.90;;;;;;5070035;28;20459;-65
2022/10/24 04:11:54;;;;;;;1999.90;999.90;;;16.60;99.90;;;;;;5069582;28;20477;-64
2022/10/24 04:14:22;;;;;;;1999.90;999.90;;;16.60;99.90;;;;;;5069266;28;20439;-64
2022/10/24 04:16:49;;;;;;;1999.90;999.90;;;16.70;99.90;;;;;;5070175;28;20860;-65
2022/10/24 04:19:17;;;;;;;1999.90;999.90;;;16.70;99.90;;;;;;5069906;28;20455;-65
2022/10/24 04:21:43;;;;;;;1999.90;999.90;;;16.70;99.90;;;;;;5069114;28;20480;-64
2022/10/24 04:24:10;;;;;;;1999.90;999.90;;;16.70;99.90;;;;;;5069280;28;20455;-64
2022/10/24 04:26:37;;;;;;;1999.90;999.90;;;16.70;99.90;;;;;;5070076;28;20435;-65
2022/10/24 04:29:04;;;;;;;1999.90;999.90;;;16.70;99.90;;;;;;5070059;28;20463;-65
2022/10/24 04:31:32;;;;;;;1999.90;999.90;;;16.70;99.90;;;;;;5069202;28;20466;-65
2022/10/24 04:33:59;;;;;;;1999.90;999.90;;;16.70;99.90;;;;;;5069770;28;20837;-67
2022/10/24 04:36:26;;;;;;;1999.90;999.90;;;16.70;99.90;;;;;;5069076;28;21019;-65
2022/10/24 04:38:53;;;;;;;1999.90;999.90;;;16.70;99.90;;;;;;5070115;28;20471;-64
2022/10/24 04:41:19;;;;;;;1999.90;999.90;;;16.70;99.90;;;;;;5069279;28;20941;-65
2022/10/24 04:43:46;;;;;;;1999.90;999.90;;;16.70;99.90;;;;;;5069550;28;20450;-65
2022/10/24 04:46:13;;;;;;;1999.90;999.90;;;16.70;99.90;;;;;;5069234;28;20439;-66
2022/10/24 04:48:41;;;;;;;1999.90;999.90;;;16.80;99.90;;;;;;5069796;28;20462;-67
2022/10/24 04:51:08;;;;;;;1999.90;999.90;;;16.80;99.90;;;;;;5069034;28;20443;-67
2022/10/24 04:53:34;;;;;;;1999.90;999.90;;;16.80;99.90;;;;;;5069415;28;20447;-67
2022/10/24 04:56:01;;;;;;;1999.90;999.90;;;16.80;99.90;;;;;;5069094;28;21003;-67
2022/10/24 04:58:28;;;;;;;1999.90;999.90;;;16.80;99.90;;;;;;5068960;28;20996;-67
2022/10/24 05:00:55;;;;;;;1999.90;999.90;;;16.80;99.90;;;;;;5052683;28;20443;-67
2022/10/24 05:03:22;;;;;;;1999.90;999.90;;;16.90;99.90;;;;;;5056546;28;20443;-67
2022/10/24 05:05:50;;;;;;;1999.90;999.90;;;17.00;99.90;;;;;;5058373;28;20443;-66
2022/10/24 05:08:17;;;;;;;1999.90;999.90;;;17.00;99.90;;;;;;5050219;28;20464;-66
2022/10/24 05:10:45;;;;;;;1999.90;999.90;;;17.00;99.90;;;;;;5051238;28;20452;-66
2022/10/24 05:13:12;;;;;;;1999.90;999.90;;;17.00;99.90;;;;;;5052786;28;21112;-67
2022/10/24 05:15:38;;;;;;;1999.90;999.90;;;17.00;99.90;;;;;;5055724;28;20486;-67
2022/10/24 05:18:05;;;;;;;1999.90;999.90;;;17.00;99.90;;;;;;5061670;28;20466;-67
2022/10/24 05:20:32;;;;;;;1999.90;999.90;;;17.00;99.90;;;;;;5067441;28;20455;-67
2022/10/24 05:23:00;;;;;;;1999.90;999.90;;;17.00;99.90;;;;;;5068119;28;21212;-67
2022/10/24 05:25:27;;;;;;;1999.90;999.90;;;17.10;99.90;;;;;;5067827;28;20485;-67
2022/10/24 05:27:54;;;;;;;1999.90;999.90;;;17.10;99.90;;;;;;5064625;28;20471;-67
2022/10/24 05:30:20;;;;;;;1999.90;999.90;;;17.10;99.90;;;;;;5068819;28;20459;-66
2022/10/24 05:32:48;;;;;;;1999.90;999.90;;;17.10;99.90;;;;;;5068268;28;20451;-67
2022/10/24 05:35:15;;;;;;;1999.90;999.90;;;17.20;99.90;;;;;;5070090;28;20458;-68
2022/10/24 05:37:44;;;;;;;1999.90;999.90;;;17.20;99.90;;;;;;5073032;28;20467;-68
2022/10/24 05:40:13;;;;;;;1999.90;999.90;;;17.10;99.90;;;;;;5073011;28;20485;-68
2022/10/24 05:42:40;;;;;;;1999.90;999.90;;;17.00;99.90;;;;;;5072443;28;20869;-68
2022/10/24 05:45:09;;;;;;;1999.90;999.90;;;16.80;99.90;;;;;;5072485;28;20447;-67
2022/10/24 05:47:36;;;;;;;1999.90;999.90;;;16.70;99.90;;;;;;5073220;28;20459;-68
2022/10/24 05:50:03;;;;;;;1999.90;999.90;;;16.60;99.90;;;;;;5072978;28;20447;-66
2022/10/24 05:52:30;;;;;;;1999.90;999.90;;;16.50;99.90;;;;;;5072110;28;20808;-67
2022/10/24 05:54:57;;;;;;;1999.90;999.90;;;16.40;99.90;;;;;;5072393;28;21038;-67
2022/10/24 05:57:25;;;;;;;1999.90;999.90;;;16.30;99.90;;;;;;5072563;28;20483;-67
2022/10/24 05:59:51;;;;;;;1999.90;999.90;;;16.20;99.90;;;;;;5072377;28;20453;-66
2022/10/24 06:02:20;;;;;;;1999.90;999.90;;;16.10;99.90;;;;;;5072078;28;20822;-66
2022/10/24 06:04:49;;;;;;;1999.90;999.90;;;15.90;99.90;;;;;;5072621;28;20447;-66
2022/10/24 06:07:16;;;;;;;1999.90;999.90;;;15.80;99.90;;;;;;5072534;28;20463;-66
2022/10/24 06:09:44;;;;;;;1999.90;999.90;;;15.80;99.90;;;;;;5072791;28;20450;-67
2022/10/24 06:12:11;;;;;;;1999.90;999.90;;;15.70;99.90;;;;;;5071802;28;20452;-67
2022/10/24 06:14:40;;;;;;;1999.90;999.90;;;15.60;99.90;;;;;;5072604;28;20451;-67
2022/10/24 06:17:10;;;;;;;1999.90;999.90;;;15.60;99.90;;;;;;5072375;28;20493;-67
2022/10/24 06:19:37;;;;;;;1999.90;999.90;;;15.50;99.90;;;;;;5072516;28;20450;-67
2022/10/24 06:22:05;;;;;;;1999.90;999.90;;;15.50;99.90;;;;;;5068677;28;20447;-66
2022/10/24 06:24:35;;;;;;;1999.90;999.90;;;15.50;99.90;;;;;;5067592;28;20486;-66
2022/10/24 06:27:01;;;;;;;1999.90;999.90;;;15.50;99.90;;;;;;5069564;28;20853;-67
2022/10/24 06:29:28;;;;;;;1999.90;999.90;;;15.40;99.90;;;;;;5072503;28;20457;-67
2022/10/24 06:31:56;;;;;;;1999.90;999.90;;;15.40;99.90;;;;;;5071623;28;20454;-67
2022/10/24 06:34:23;;;;;;;1999.90;999.90;;;15.40;99.90;;;;;;5071563;28;20490;-67
2022/10/24 06:36:50;;;;;;;1999.90;999.90;;;15.30;99.90;;;;;;5071865;28;20852;-67
2022/10/24 06:39:17;;;;;;;1999.90;999.90;;;15.30;99.90;;;;;;5071858;28;20447;-67
2022/10/24 06:41:44;;;;;;;1999.90;999.90;;;15.30;99.90;;;;;;5071332;28;20451;-67
2022/10/24 06:44:11;;;;;;;1999.90;999.90;;;15.20;99.90;;;;;;5072010;28;20451;-67
2022/10/24 06:46:37;;;;;;;1999.90;999.90;;;15.20;99.90;;;;;;5070805;28;20447;-67
2022/10/24 06:49:06;;;;;;;1999.90;999.90;;;15.20;99.90;;;;;;5071782;28;20551;-67
2022/10/24 06:51:33;;;;;;;1999.90;999.90;;;15.20;99.90;;;;;;5070793;28;20443;-67
2022/10/24 06:54:00;;;;;;;1999.90;999.90;;;15.20;99.90;;;;;;5064257;28;20458;-67
2022/10/24 06:56:26;;;;;;;1999.90;999.90;;;15.20;99.90;;;;;;5071032;28;20482;-67
2022/10/24 06:58:53;;;;;;;1999.90;999.90;;;15.30;99.90;;;;;;5071724;28;20463;-67
2022/10/24 07:01:21;;;;;;;1999.90;999.90;;;15.30;99.90;;;;;;5071365;28;20450;-67
2022/10/24 07:03:49;;;;;;;1999.90;999.90;;;15.20;99.90;;;;;;5067809;28;20442;-67
2022/10/24 07:06:20;;;;;;;1999.90;999.90;;;15.20;99.90;;;;;;5066709;28;20439;-68
2022/10/24 07:08:47;;;;;;;1999.90;999.90;;;15.30;99.90;;;;;;5069458;28;20462;-68
2022/10/24 07:11:14;;;;;;;1999.90;999.90;;;15.30;99.90;;;;;;5069353;28;20869;-67
2022/10/24 07:13:41;;;;;;;1999.90;999.90;;;15.40;99.90;;;;;;5069006;28;20443;-67
2022/10/24 07:16:08;;;;;;;1999.90;999.90;;;15.40;99.90;;;;;;5069122;28;20474;-67
2022/10/24 07:18:35;;;;;;;1999.90;999.90;;;15.30;99.90;;;;;;5069145;28;20474;-67
2022/10/24 07:21:04;;;;;;;1999.90;999.90;;;15.30;99.90;;;;;;5069257;28;20443;-67
2022/10/24 07:23:33;;;;;;;1999.90;999.90;;;15.30;99.90;;;;;;5068980;28;20486;-66
2022/10/24 07:26:02;;;;;;;1999.90;999.90;;;15.20;99.90;;;;;;5068926;28;20439;-67
2022/10/24 07:28:29;;;;;;;1999.90;999.90;;;15.20;99.90;;;;;;5069380;28;21004;-67
2022/10/24 07:30:55;;;;;;;1999.90;999.90;;;15.30;99.90;;;;;;5069998;28;20821;-67
2022/10/24 07:33:22;;;;;;;1999.90;999.90;;;15.30;99.90;;;;;;5068878;28;20534;-67
2022/10/24 07:35:49;;;;;;;1999.90;999.90;;;15.50;99.90;;;;;;5068499;28;20451;-67
2022/10/24 07:38:16;;;;;;;1999.90;999.90;;;15.50;99.90;;;;;;5069378;28;20465;-67
2022/10/24 07:40:44;;;;;;;1999.90;999.90;;;15.50;99.90;;;;;;5068866;28;20443;-67
2022/10/24 07:43:10;;;;;;;1999.90;999.90;;;15.60;99.90;;;;;;5068860;28;20439;-67
2022/10/24 07:45:38;;;;;;;1999.90;999.90;;;15.60;99.90;;;;;;5068339;28;20451;-67
2022/10/24 07:48:06;;;;;;;1999.90;999.90;;;15.70;99.90;;;;;;5068718;28;20482;-67
2022/10/24 07:50:33;;;;;;;1999.90;999.90;;;15.70;99.90;;;;;;5068790;28;20447;-67
2022/10/24 07:53:00;;;;;;;1999.90;999.90;;;15.80;99.90;;;;;;5068010;28;20937;-67
2022/10/24 07:55:27;;;;;;;1999.90;999.90;;;15.80;99.90;;;;;;5068228;28;20440;-67
2022/10/24 07:57:55;;;;;;;1999.90;999.90;;;15.80;99.90;;;;;;5068174;28;20487;-67
2022/10/24 08:00:23;;;;;;;1999.90;999.90;;;15.70;99.90;;;;;;5068468;28;20546;-67
2022/10/24 08:02:50;;;;;;;1999.90;999.90;;;15.70;99.90;;;;;;5067761;28;20545;-67
2022/10/24 08:05:17;;;;;;;1999.90;999.90;;;15.70;99.90;;;;;;5068277;28;20451;-67
2022/10/24 08:07:43;;;;;;;1999.90;999.90;;;15.70;99.90;;;;;;5068070;28;20466;-67
2022/10/24 08:10:12;;;;;;;1999.90;999.90;;;15.70;99.90;;;;;;5068543;28;20455;-67
2022/10/24 08:12:39;;;;;;;1999.90;999.90;;;15.70;99.90;;;;;;5067610;28;20548;-67
2022/10/24 08:15:08;;;;;;;1999.90;999.90;;;15.70;99.90;;;;;;5067291;28;20454;-67
2022/10/24 08:17:36;;;;;;;1999.90;999.90;;;15.60;99.90;;;;;;5067777;28;20482;-67
2022/10/24 08:20:03;;;;;;;1999.90;999.90;;;15.60;99.90;;;;;;5068151;28;20443;-67
2022/10/24 08:22:32;;;;;;;1999.90;999.90;;;15.60;99.90;;;;;;5067180;28;20451;-67
2022/10/24 08:24:59;;;;;;;1999.90;999.90;;;15.60;99.90;;;;;;5068088;28;20439;-67
2022/10/24 08:27:26;;;;;;;1999.90;999.90;;;15.50;99.90;;;;;;5067515;28;20471;-67
2022/10/24 08:29:53;;;;;;;1999.90;999.90;;;15.50;99.90;;;;;;5068087;28;20968;-67
2022/10/24 08:32:21;;;;;;;1999.90;999.90;;;15.50;99.90;;;;;;5066760;28;20550;-67
2022/10/24 08:34:48;;;;;;;1999.90;999.90;;;15.60;99.90;;;;;;5067645;28;20459;-67
2022/10/24 08:37:16;;;;;;;1999.90;999.90;;;15.60;99.90;;;;;;5068098;28;20574;-67
2022/10/24 08:39:43;;;;;;;1999.90;999.90;;;15.70;99.90;;;;;;5068003;28;20693;-67
2022/10/24 08:42:13;;;;;;;1999.90;999.90;;;15.80;99.90;;;;;;5067327;28;21003;-67
2022/10/24 08:44:42;;;;;;;1999.90;999.90;;;15.80;99.90;;;;;;5067573;28;20438;-67
2022/10/24 08:47:17;;;;;;;1999.90;999.90;;;15.90;99.90;;;;;;5067719;28;20450;-67
2022/10/24 08:49:49;;;;;;;1999.90;999.90;;;16.00;99.90;;;;;;5067713;28;20458;-67
2022/10/24 08:52:23;;;;;;;1999.90;999.90;;;16.10;99.90;;;;;;5066722;28;20450;-67
2022/10/24 08:54:52;;;;;;;1999.90;999.90;;;16.10;99.90;;;;;;5067549;28;20447;-67
2022/10/24 08:57:23;;;;;;;1999.90;999.90;;;16.10;99.90;;;;;;5067847;28;20494;-67
2022/10/24 08:59:51;;;;;;;1999.90;999.90;;;16.20;99.90;;;;;;5067479;28;20447;-67
2022/10/24 09:02:22;;;;;;;1999.90;999.90;;;16.20;99.90;;;;;;5066641;28;20822;-67
2022/10/24 09:04:55;;;;;;;1999.90;999.90;;;16.20;99.90;;;;;;5066682;28;20971;-67
2022/10/24 09:07:23;;;;;;;1999.90;999.90;;;16.20;99.90;;;;;;5067397;28;20463;-66
2022/10/24 09:09:52;;;;;;;1999.90;999.90;;;16.30;99.90;;;;;;5068276;28;20451;-67
2022/10/24 09:12:20;;;;;;;1999.90;999.90;;;16.20;99.90;;;;;;5070594;28;20443;-66
2022/10/24 09:14:53;;;;;;;1999.90;999.90;;;16.30;99.90;;;;;;5070735;28;20542;-66
2022/10/24 09:17:22;;;;;;;1999.90;999.90;;;16.30;99.90;;;;;;5070923;28;20479;-67
2022/10/24 09:19:53;;;;;;;1999.90;999.90;;;16.30;99.90;;;;;;5071437;28;20443;-67
2022/10/24 09:22:21;;;;;;;1999.90;999.90;;;16.30;99.90;;;;;;5070143;28;20442;-67
2022/10/24 09:24:52;;;;;;;1999.90;999.90;;;16.30;99.90;;;;;;5070175;28;20443;-66
2022/10/24 09:27:24;;;;;;;1999.90;999.90;;;16.30;99.90;;;;;;5071018;28;21040;-67
2022/10/24 09:29:52;;;;;;;1999.90;999.90;;;16.30;99.90;;;;;;5070520;28;20458;-67
2022/10/24 09:32:21;;;;;;;1999.90;999.90;;;16.30;99.90;;;;;;5070291;28;20454;-67
2022/10/24 09:34:50;;;;;;;1999.90;999.90;;;16.30;99.90;;;;;;5070685;28;20462;-67
2022/10/24 09:37:34;;;;;;;1999.90;999.90;;;16.30;99.90;;;;;;5070868;28;20483;-67
2022/10/24 09:40:14;;;;;;;1999.90;999.90;;;16.30;99.90;;;;;;5071010;28;20446;-67
2022/10/24 09:42:47;;;;;;;1999.90;999.90;;;16.40;99.90;;;;;;5070298;28;20439;-67
2022/10/24 09:45:31;;;;;;;1999.90;999.90;;;16.30;99.90;;;;;;5070372;28;21011;-67
2022/10/24 09:48:00;;;;;;;1999.90;999.90;;;16.30;99.90;;;;;;5070618;28;20466;-67
2022/10/24 09:50:29;;;;;;;1999.90;999.90;;;16.30;99.90;;;;;;5070737;28;20450;-67
2022/10/24 09:52:58;;;;;;;1999.90;999.90;;;16.20;99.90;;;;;;5064803;28;20447;-67
2022/10/24 09:55:29;;;;;;;1999.90;999.90;;;16.20;99.90;;;;;;5050899;28;21164;-67
2022/10/24 09:58:02;;;;;;;1999.90;999.90;;;16.30;99.90;;;;;;5052182;28;21027;-67
2022/10/24 10:00:32;;;;;;;1999.90;999.90;;;16.30;99.90;;;;;;5051710;28;20455;-67
2022/10/24 10:03:01;;;;;;;1999.90;999.90;;;16.20;99.90;;;;;;5051613;28;20458;-67
2022/10/24 10:05:42;;;;;;;1999.90;999.90;;;16.30;99.90;;;;;;5051638;28;20460;-67
2022/10/24 10:08:12;;;;;;;1999.90;999.90;;;16.30;99.90;;;;;;5052736;28;20460;-67
2022/10/24 10:10:40;;;;;;;1999.90;999.90;;;16.40;99.90;;;;;;5052225;28;20444;-67
2022/10/24 10:13:18;;;;;;;1999.90;999.90;;;16.50;99.90;;;;;;5052247;28;20448;-66
2022/10/24 10:15:48;;;;;;;1999.90;999.90;;;16.50;99.90;;;;;;5052041;28;20501;-67
2022/10/24 10:18:31;;;;;;;1999.90;999.90;;;16.50;99.90;;;;;;5052511;28;20488;-67
2022/10/24 10:21:02;;;;;;;1999.90;999.90;;;16.50;99.90;;;;;;5051360;28;20459;-67
2022/10/24 10:23:32;;;;;;;1999.90;999.90;;;16.60;99.90;;;;;;5051931;28;20459;-67
2022/10/24 10:26:05;;;;;;;1999.90;999.90;;;16.70;99.90;;;;;;5051720;28;20447;-67
2022/10/24 10:28:34;;;;;;;1999.90;999.90;;;16.80;99.90;;;;;;5052327;28;21317;-67
2022/10/24 10:31:03;;;;;;;1999.90;999.90;;;16.80;99.90;;;;;;5051569;28;20448;-67
2022/10/24 10:33:36;;;;;;;1999.90;999.90;;;16.90;99.90;;;;;;5052071;28;20522;-67
2022/10/24 10:36:11;;;;;;;1999.90;999.90;;;17.00;99.90;;;;;;5051859;28;20448;-67
2022/10/24 10:38:50;;;;;;;1999.90;999.90;;;17.10;99.90;;;;;;5051908;28;20490;-67
2022/10/24 10:41:39;;;;;;;1999.90;999.90;;;17.10;99.90;;;;;;5051993;28;20448;-67
2022/10/24 10:44:25;;;;;;;1999.90;999.90;;;17.20;99.90;;;;;;5051964;28;20451;-67
2022/10/24 10:47:01;;;;;;;1999.90;999.90;;;17.30;99.90;;;;;;5051960;28;20440;-67
2022/10/24 10:49:31;;;;;;;1999.90;999.90;;;17.30;99.90;;;;;;5052403;28;20819;-67
2022/10/24 10:52:06;;;;;;;1999.90;999.90;;;17.30;99.90;;;;;;5051291;28;20451;-67
2022/10/24 10:54:52;;;;;;;1999.90;999.90;;;17.30;99.90;;;;;;5051838;28;20451;-67
2022/10/24 10:57:24;;;;;;;1999.90;999.90;;;17.30;99.90;;;;;;5051727;28;20490;-67
2022/10/24 10:59:58;;;;;;;1999.90;999.90;;;17.30;99.90;;;;;;5051944;28;20470;-67
2022/10/24 11:02:43;;;;;;;1999.90;999.90;;;17.30;99.90;;;;;;5051070;28;20448;-67
2022/10/24 11:05:26;;;;;;;1999.90;999.90;;;17.40;99.90;;;;;;5051426;28;20447;-67
2022/10/24 11:08:03;;;;;;;1999.90;999.90;;;17.40;99.90;;;;;;5051305;28;20464;-67
2022/10/24 11:10:37;;;;;;;1999.90;999.90;;;17.40;99.90;;;;;;5051702;28;20907;-66
2022/10/24 11:13:08;;;;;;;1999.90;999.90;;;17.40;99.90;;;;;;5051166;28;20443;-67
2022/10/24 11:15:40;;;;;;;1999.90;999.90;;;17.40;99.90;;;;;;5051077;28;20451;-67
2022/10/24 11:18:12;;;;;;;1999.90;999.90;;;17.40;99.90;;;;;;5051124;28;20484;-67
2022/10/24 11:20:44;;;;;;;1999.90;999.90;;;17.30;99.90;;;;;;5051039;28;20467;-67
2022/10/24 11:23:18;;;;;;;1999.90;999.90;;;17.30;99.90;;;;;;5050868;28;20447;-67
2022/10/24 11:25:50;;;;;;;1999.90;999.90;;;17.30;99.90;;;;;;5050588;28;20439;-66
2022/10/24 11:28:25;;;;;;;1999.90;999.90;;;17.40;99.90;;;;;;5050539;28;20466;-68
2022/10/24 11:30:56;;;;;;;1999.90;999.90;;;17.50;99.90;;;;;;5050526;28;20451;-67
2022/10/24 11:33:26;;;;;;;1999.90;999.90;;;17.50;99.90;;;;;;5050536;28;20467;-66
2022/10/24 11:36:04;;;;;;;1999.90;999.90;;;17.50;99.90;;;;;;5050418;28;20452;-67
2022/10/24 11:38:36;;;;;;;1999.90;999.90;;;17.50;99.90;;;;;;5050790;28;20498;-67
2022/10/24 11:41:29;;;;;;;1999.90;999.90;;;17.60;99.90;;;;;;5050251;28;21107;-67
2022/10/24 11:43:58;;;;;;;1999.90;999.90;;;17.60;99.90;;;;;;5050387;28;20953;-67
2022/10/24 11:46:32;;;;;;;1999.90;999.90;;;17.60;99.90;;;;;;5050230;28;20451;-67
2022/10/24 11:49:04;;;;;;;1999.90;999.90;;;17.60;99.90;;;;;;5050731;28;20456;-66
2022/10/24 11:51:37;;;;;;;1999.90;999.90;;;17.70;99.90;;;;;;5050314;28;20466;-67
2022/10/24 11:54:11;;;;;;;1999.90;999.90;;;17.70;99.90;;;;;;5050654;28;20903;-67
2022/10/24 11:56:43;;;;;;;1999.90;999.90;;;17.70;99.90;;;;;;5050360;28;20448;-66
2022/10/24 11:59:17;;;;;;;1999.90;999.90;;;17.80;99.90;;;;;;5050623;28;20487;-67
2022/10/24 12:02:02;;;;;;;1999.90;999.90;;;17.80;99.90;;;;;;5052815;28;20831;-66
2022/10/24 12:05:05;;;;;;;1999.90;999.90;;;17.80;99.90;;;;;;5063484;28;20925;-67
2022/10/24 12:08:05;;;;;;;1999.90;999.90;;;17.80;99.90;;;;;;5048010;28;20546;-67
2022/10/24 12:10:49;;;;;;;1999.90;999.90;;;17.90;99.90;;;;;;5047935;28;20458;-67
2022/10/24 12:13:43;;;;;;;1999.90;999.90;;;18.00;99.90;;;;;;5047644;28;20837;-66